createdAt,value
2022-10-19T00:01:10.229Z,35.20
2022-10-19T00:06:32.800Z,31.05
2022-10-19T00:11:36.587Z,47.47
2022-10-19T00:16:35.144Z,34.47
2022-10-19T00:21:38.618Z,39.78
2022-10-19T00:26:32.555Z,42.03
2022-10-19T00:31:26.607Z,33.53
2022-10-19T00:36:26.411Z,42.05
2022-10-19T00:41:27.677Z,38.05
2022-10-19T00:46:24.473Z,37.20
2022-10-19T00:51:27.805Z,37.33
2022-10-19T00:56:24.954Z,32.80
2022-10-19T01:01:27.938Z,38.38
2022-10-19T01:06:23.241Z,40.88
2022-10-19T01:11:50.033Z,36.05
2022-10-19T01:17:00.516Z,37.42
2022-10-19T01:22:07.110Z,33.70
2022-10-19T01:27:28.120Z,35.30
2022-10-19T01:32:35.995Z,31.65
2022-10-19T01:37:44.354Z,35.40
2022-10-19T01:43:06.404Z,32.35
2022-10-19T01:48:17.132Z,31.45
2022-10-19T01:53:17.460Z,32.15
2022-10-19T01:58:24.605Z,30.02
2022-10-19T02:03:23.057Z,36.78
2022-10-19T02:08:33.586Z,40.75
2022-10-19T02:13:33.743Z,32.53
2022-10-19T02:18:36.338Z,32.20
2022-10-19T02:23:32.436Z,34.50
2022-10-19T02:28:28.467Z,35.22
2022-10-19T02:33:26.399Z,26.60
2022-10-19T02:38:25.644Z,30.33
2022-10-19T02:43:22.177Z,29.08
2022-10-19T02:48:21.680Z,31.00
2022-10-19T02:53:15.956Z,30.02
2022-10-19T02:58:10.142Z,30.75
2022-10-19T03:03:04.519Z,28.80
2022-10-19T03:07:58.400Z,35.40
2022-10-19T03:12:52.528Z,30.25
2022-10-19T03:17:45.985Z,29.13
2022-10-19T03:22:41.063Z,28.23
2022-10-19T03:27:36.447Z,33.67
2022-10-19T03:32:28.783Z,32.70
2022-10-19T03:37:23.672Z,29.48
2022-10-19T03:42:17.495Z,27.45
2022-10-19T03:47:11.210Z,31.15
2022-10-19T03:52:05.163Z,33.90
2022-10-19T03:57:02.200Z,26.23
2022-10-19T04:02:00.125Z,28.20
2022-10-19T04:06:55.959Z,28.95
2022-10-19T04:11:50.360Z,32.45
2022-10-19T04:16:45.311Z,30.65
2022-10-19T04:21:40.866Z,30.95
2022-10-19T04:26:40.528Z,33.03
2022-10-19T04:36:28.046Z,32.28
2022-10-19T04:41:22.527Z,32.95
2022-10-19T04:46:20.349Z,29.05
2022-10-19T04:51:15.101Z,32.92
2022-10-19T04:56:11.382Z,28.42
2022-10-19T05:01:11.920Z,27.88
2022-10-19T05:06:07.252Z,33.67
2022-10-19T05:11:07.038Z,29.02
2022-10-19T05:16:02.106Z,32.00
2022-10-19T05:21:14.314Z,30.73
2022-10-19T05:26:17.376Z,34.58
2022-10-19T05:31:16.187Z,30.02
2022-10-19T05:36:28.096Z,26.17
2022-10-19T05:41:22.820Z,29.55
2022-10-19T05:46:20.072Z,26.55
2022-10-19T05:51:16.739Z,31.98
2022-10-19T05:56:15.386Z,27.92
2022-10-19T06:01:10.361Z,21.27
2022-10-19T06:06:04.965Z,43.40
2022-10-19T06:11:11.472Z,29.75
2022-10-19T06:16:06.302Z,29.17
2022-10-19T06:21:04.723Z,26.52
2022-10-19T06:25:58.818Z,26.80
2022-10-19T06:30:52.776Z,32.10
2022-10-19T06:35:46.460Z,26.63
2022-10-19T06:40:39.610Z,31.52
2022-10-19T06:45:35.921Z,29.17
2022-10-19T06:50:29.630Z,28.13
2022-10-19T06:55:23.603Z,24.77
2022-10-19T07:00:19.092Z,30.75
2022-10-19T07:05:16.889Z,25.63
2022-10-19T07:10:10.610Z,33.15
2022-10-19T07:15:04.774Z,28.10
2022-10-19T07:19:58.082Z,33.75
2022-10-19T07:24:52.984Z,36.47
2022-10-19T07:29:47.179Z,35.60
2022-10-19T07:34:41.121Z,28.92
2022-10-19T07:39:34.307Z,25.45
2022-10-19T07:44:28.826Z,22.73
2022-10-19T07:49:23.349Z,24.98
2022-10-19T07:54:17.000Z,29.45
2022-10-19T07:59:11.931Z,22.88
2022-10-19T08:09:47.203Z,34.75
2022-10-19T08:14:32.970Z,23.60
2022-10-19T08:19:26.933Z,21.55
2022-10-19T08:24:21.846Z,21.50
2022-10-19T08:29:17.526Z,29.88
2022-10-19T08:34:10.869Z,26.17
2022-10-19T08:39:07.114Z,25.00
2022-10-19T08:44:28.406Z,24.33
2022-10-19T08:49:23.770Z,26.10
2022-10-19T08:54:17.902Z,25.15
2022-10-19T08:59:32.097Z,33.92
2022-10-19T09:04:38.461Z,26.40
2022-10-19T09:09:33.542Z,25.10
2022-10-19T09:14:39.031Z,20.00
2022-10-19T09:19:32.492Z,28.38
2022-10-19T09:24:55.671Z,24.92
2022-10-19T09:29:55.941Z,25.27
2022-10-19T09:34:54.613Z,28.23
2022-10-19T09:39:53.930Z,30.73
2022-10-19T09:44:50.179Z,35.25
2022-10-19T09:49:46.310Z,33.83
2022-10-19T09:54:41.206Z,38.58
2022-10-19T09:59:37.893Z,36.85
2022-10-19T10:04:32.319Z,36.22
2022-10-19T10:09:27.860Z,33.95
2022-10-19T10:14:27.605Z,36.28
2022-10-19T10:19:23.230Z,40.20
2022-10-19T10:24:22.269Z,43.15
2022-10-19T10:29:19.714Z,38.80
2022-10-19T10:34:37.620Z,40.22
2022-10-19T10:39:43.704Z,39.38
2022-10-19T10:44:38.239Z,36.50
2022-10-19T10:49:40.471Z,34.50
2022-10-19T10:54:33.397Z,37.63
2022-10-19T10:59:54.403Z,40.75
2022-10-19T11:04:55.869Z,39.80
2022-10-19T11:10:00.420Z,51.63
2022-10-19T11:14:59.452Z,37.10
2022-10-19T11:19:52.708Z,37.22
2022-10-19T11:24:55.390Z,41.03
2022-10-19T11:30:11.357Z,35.33
2022-10-19T11:35:35.169Z,37.35
2022-10-19T11:41:06.137Z,37.30
2022-10-19T11:46:04.500Z,40.00
2022-10-19T11:51:20.888Z,39.78
2022-10-19T11:56:21.041Z,39.58
2022-10-19T12:01:40.440Z,35.55
2022-10-19T12:06:55.264Z,35.83
2022-10-19T12:12:27.030Z,38.42
2022-10-19T12:17:26.819Z,42.15
2022-10-19T12:22:23.023Z,41.85
2022-10-19T12:27:17.644Z,41.88
2022-10-19T12:32:15.514Z,50.20
2022-10-19T12:37:20.292Z,39.92
2022-10-19T12:42:28.828Z,39.78
2022-10-19T12:47:25.092Z,42.78
2022-10-19T12:52:36.866Z,37.42
2022-10-19T12:57:30.794Z,53.95
2022-10-19T13:02:44.396Z,46.22
2022-10-19T13:07:38.258Z,35.95
2022-10-19T13:12:45.688Z,41.78
2022-10-19T13:18:02.079Z,40.83
2022-10-19T13:23:01.303Z,37.03
2022-10-19T13:28:01.078Z,41.72
2022-10-19T13:32:54.559Z,52.55
2022-10-19T13:38:08.468Z,46.67
2022-10-19T13:43:02.290Z,41.63
2022-10-19T13:48:18.253Z,41.03
2022-10-19T13:53:52.083Z,48.95
2022-10-19T13:59:00.568Z,46.45
2022-10-19T14:04:15.008Z,45.63
2022-10-19T14:09:43.541Z,43.00
2022-10-19T14:14:44.521Z,43.70
2022-10-19T14:19:45.508Z,43.75
2022-10-19T14:24:39.386Z,37.83
2022-10-19T14:29:44.263Z,37.15
2022-10-19T14:34:42.951Z,39.92
2022-10-19T14:44:42.311Z,33.90
2022-10-19T14:49:36.771Z,39.53
2022-10-19T14:54:37.874Z,35.47
2022-10-19T15:00:16.966Z,44.53
2022-10-19T15:05:19.940Z,40.90
2022-10-19T15:10:43.258Z,38.05
2022-10-19T15:15:37.371Z,39.78
2022-10-19T15:20:44.154Z,41.13
2022-10-19T15:25:59.724Z,34.60
2022-10-19T15:31:25.341Z,31.90
2022-10-19T15:36:21.347Z,29.27
2022-10-19T15:41:29.483Z,30.50
2022-10-19T15:46:29.173Z,34.40
2022-10-19T15:51:28.533Z,35.72
2022-10-19T15:56:22.670Z,36.45
2022-10-19T16:01:19.191Z,37.42
2022-10-19T16:06:12.896Z,34.42
2022-10-19T16:11:06.581Z,37.42
2022-10-19T16:16:11.242Z,35.33
2022-10-19T16:21:06.554Z,33.10
2022-10-19T16:25:59.168Z,44.88
2022-10-19T16:31:12.782Z,43.95
2022-10-19T16:36:09.208Z,44.08
2022-10-19T16:41:04.561Z,45.28
2022-10-19T16:45:58.715Z,50.50
2022-10-19T16:51:07.387Z,42.08
2022-10-19T16:56:08.294Z,40.90
2022-10-19T17:01:10.445Z,40.88
2022-10-19T17:06:08.537Z,44.13
2022-10-19T17:11:22.965Z,42.38
2022-10-19T17:16:17.256Z,39.78
2022-10-19T17:21:15.594Z,47.97
2022-10-19T17:26:09.355Z,39.45
2022-10-19T17:31:11.182Z,49.15
2022-10-19T17:36:14.421Z,49.00
2022-10-19T17:41:11.145Z,47.42
2022-10-19T17:46:08.088Z,41.53
2022-10-19T17:51:04.061Z,41.38
2022-10-19T17:56:00.658Z,50.58
2022-10-19T18:00:56.260Z,39.92
2022-10-19T18:06:06.854Z,52.65
2022-10-19T18:11:29.819Z,38.70
2022-10-19T18:16:26.173Z,49.75
2022-10-19T18:21:23.060Z,44.30
2022-10-19T18:26:20.309Z,49.08
2022-10-19T18:31:15.505Z,40.92
2022-10-19T18:36:10.932Z,41.22
2022-10-19T18:41:09.893Z,39.20
2022-10-19T18:46:03.798Z,37.42
2022-10-19T18:50:59.090Z,36.00
2022-10-19T18:55:59.952Z,40.85
2022-10-19T19:01:11.570Z,42.47
2022-10-19T19:06:12.534Z,46.15
2022-10-19T19:11:17.371Z,36.03
2022-10-19T19:16:11.270Z,43.42
2022-10-19T19:21:06.129Z,48.65
2022-10-19T19:25:59.899Z,38.72
2022-10-19T19:30:55.395Z,45.33
2022-10-19T19:35:50.883Z,40.05
2022-10-19T19:40:47.231Z,38.25
2022-10-19T19:45:41.400Z,41.33
2022-10-19T19:50:35.268Z,41.85
2022-10-19T19:55:28.974Z,44.58
2022-10-19T20:00:23.892Z,41.58
2022-10-19T20:05:17.459Z,36.50
2022-10-19T20:10:11.989Z,36.05
2022-10-19T20:15:06.645Z,46.92
2022-10-19T20:20:00.480Z,40.85
2022-10-19T20:24:53.856Z,41.53
2022-10-19T20:29:47.516Z,43.13
2022-10-19T20:34:41.264Z,45.10
2022-10-19T20:39:35.474Z,47.60
2022-10-19T20:44:30.671Z,46.92
2022-10-19T20:49:25.024Z,53.17
2022-10-19T20:54:19.000Z,55.35
2022-10-19T20:59:15.159Z,48.25
2022-10-19T21:04:11.822Z,46.28
2022-10-19T21:09:05.911Z,51.83
2022-10-19T21:14:07.806Z,46.25
2022-10-19T21:19:02.400Z,43.38
2022-10-19T21:24:02.147Z,50.33
2022-10-19T21:28:55.480Z,45.95
2022-10-19T21:33:49.427Z,48.08
2022-10-19T21:38:43.669Z,53.63
2022-10-19T21:43:37.648Z,49.05
2022-10-19T21:48:32.670Z,43.47
2022-10-19T21:53:26.261Z,45.75
2022-10-19T21:58:21.940Z,43.90
2022-10-19T22:03:15.891Z,41.60
2022-10-19T22:08:09.877Z,46.40
2022-10-19T22:13:03.821Z,44.33
2022-10-19T22:18:00.583Z,42.47
2022-10-19T22:22:55.114Z,47.50
2022-10-19T22:27:52.324Z,41.90
2022-10-19T22:32:46.036Z,51.17
2022-10-19T22:37:40.275Z,51.75
2022-10-19T22:43:29.938Z,45.10
2022-10-19T22:48:41.236Z,51.33
2022-10-19T22:53:34.509Z,50.97
2022-10-19T22:58:27.706Z,43.28
2022-10-19T23:03:20.594Z,51.95
2022-10-19T23:08:14.237Z,44.00
2022-10-19T23:13:10.097Z,45.05
2022-10-19T23:18:03.495Z,47.25
2022-10-19T23:22:57.397Z,43.25
2022-10-19T23:27:51.854Z,54.53
2022-10-19T23:32:45.132Z,48.83
2022-10-19T23:37:38.912Z,48.47
2022-10-19T23:42:32.749Z,54.83
2022-10-19T23:47:26.855Z,53.22
2022-10-19T23:52:21.010Z,48.38
2022-10-19T23:57:15.064Z,52.20
